sensor_id;sensor_type;location;lat;lon;timestamp;P1;durP1;ratioP1;P2;durP2;ratioP2
10007;SDS011;5043;41.766;26.204;2022-09-25T00:00:25;3.65;;;3.33;;
10007;SDS011;5043;41.766;26.204;2022-09-25T00:02:51;5.85;;;3.35;;
10007;SDS011;5043;41.766;26.204;2022-09-25T00:05:16;4.10;;;3.45;;
10007;SDS011;5043;41.766;26.204;2022-09-25T00:07:42;3.15;;;2.92;;
10007;SDS011;5043;41.766;26.204;2022-09-25T00:10:07;5.32;;;3.08;;
10007;SDS011;5043;41.766;26.204;2022-09-25T00:12:33;3.65;;;3.10;;
10007;SDS011;5043;41.766;26.204;2022-09-25T00:15:00;3.20;;;2.90;;
10007;SDS011;5043;41.766;26.204;2022-09-25T00:17:26;6.55;;;3.33;;
10007;SDS011;5043;41.766;26.204;2022-09-25T00:19:51;3.22;;;3.03;;
10007;SDS011;5043;41.766;26.204;2022-09-25T00:22:17;3.25;;;2.78;;
10007;SDS011;5043;41.766;26.204;2022-09-25T00:24:46;3.42;;;3.17;;
10007;SDS011;5043;41.766;26.204;2022-09-25T00:27:12;3.85;;;3.08;;
10007;SDS011;5043;41.766;26.204;2022-09-25T00:29:39;2.75;;;2.55;;
10007;SDS011;5043;41.766;26.204;2022-09-25T00:32:06;5.78;;;2.55;;
10007;SDS011;5043;41.766;26.204;2022-09-25T00:34:32;3.85;;;2.60;;
10007;SDS011;5043;41.766;26.204;2022-09-25T00:36:58;2.60;;;2.40;;
10007;SDS011;5043;41.766;26.204;2022-09-25T00:39:23;2.80;;;2.60;;
10007;SDS011;5043;41.766;26.204;2022-09-25T00:41:50;2.85;;;2.60;;
10007;SDS011;5043;41.766;26.204;2022-09-25T00:47:09;3.28;;;2.65;;
10007;SDS011;5043;41.766;26.204;2022-09-25T00:49:37;3.15;;;2.53;;
10007;SDS011;5043;41.766;26.204;2022-09-25T00:52:04;2.90;;;2.67;;
10007;SDS011;5043;41.766;26.204;2022-09-25T00:54:32;3.67;;;2.47;;
10007;SDS011;5043;41.766;26.204;2022-09-25T00:57:06;2.33;;;2.20;;
10007;SDS011;5043;41.766;26.204;2022-09-25T00:59:45;2.60;;;2.40;;
10007;SDS011;5043;41.766;26.204;2022-09-25T01:05:18;3.53;;;3.22;;
10007;SDS011;5043;41.766;26.204;2022-09-25T01:07:47;3.08;;;2.42;;
10007;SDS011;5043;41.766;26.204;2022-09-25T01:10:14;4.63;;;2.83;;
10007;SDS011;5043;41.766;26.204;2022-09-25T01:12:42;2.65;;;2.45;;
10007;SDS011;5043;41.766;26.204;2022-09-25T01:15:11;2.72;;;2.50;;
10007;SDS011;5043;41.766;26.204;2022-09-25T01:29:18;3.35;;;2.22;;
10007;SDS011;5043;41.766;26.204;2022-09-25T01:31:53;3.85;;;2.70;;
10007;SDS011;5043;41.766;26.204;2022-09-25T01:34:21;6.95;;;2.60;;
10007;SDS011;5043;41.766;26.204;2022-09-25T01:37:14;2.33;;;2.22;;
10007;SDS011;5043;41.766;26.204;2022-09-25T01:39:52;2.45;;;2.25;;
10007;SDS011;5043;41.766;26.204;2022-09-25T01:42:38;2.70;;;2.50;;
10007;SDS011;5043;41.766;26.204;2022-09-25T01:45:08;3.22;;;2.78;;
10007;SDS011;5043;41.766;26.204;2022-09-25T01:47:40;2.55;;;2.35;;
10007;SDS011;5043;41.766;26.204;2022-09-25T01:50:13;3.42;;;2.30;;
10007;SDS011;5043;41.766;26.204;2022-09-25T01:52:48;2.47;;;2.28;;
10007;SDS011;5043;41.766;26.204;2022-09-25T01:55:19;2.60;;;2.40;;
10007;SDS011;5043;41.766;26.204;2022-09-25T01:58:04;3.55;;;2.60;;
10007;SDS011;5043;41.766;26.204;2022-09-25T02:00:44;3.17;;;2.58;;
10007;SDS011;5043;41.766;26.204;2022-09-25T02:03:19;4.32;;;2.72;;
10007;SDS011;5043;41.766;26.204;2022-09-25T02:06:01;3.33;;;2.90;;
10007;SDS011;5043;41.766;26.204;2022-09-25T02:08:30;5.63;;;2.80;;
10007;SDS011;5043;41.766;26.204;2022-09-25T02:11:03;2.50;;;2.30;;
10007;SDS011;5043;41.766;26.204;2022-09-25T02:13:48;4.78;;;2.53;;
10007;SDS011;5043;41.766;26.204;2022-09-25T02:16:18;3.20;;;2.90;;
10007;SDS011;5043;41.766;26.204;2022-09-25T02:18:50;3.28;;;2.97;;
10007;SDS011;5043;41.766;26.204;2022-09-25T02:26:39;2.97;;;2.78;;
10007;SDS011;5043;41.766;26.204;2022-09-25T02:29:07;5.10;;;3.38;;
10007;SDS011;5043;41.766;26.204;2022-09-25T02:31:43;3.33;;;3.03;;
10007;SDS011;5043;41.766;26.204;2022-09-25T02:34:14;3.72;;;2.80;;
10007;SDS011;5043;41.766;26.204;2022-09-25T02:36:39;3.17;;;2.88;;
10007;SDS011;5043;41.766;26.204;2022-09-25T02:39:07;3.80;;;2.95;;
10007;SDS011;5043;41.766;26.204;2022-09-25T02:44:11;3.58;;;3.28;;
10007;SDS011;5043;41.766;26.204;2022-09-25T02:49:46;3.50;;;3.20;;
10007;SDS011;5043;41.766;26.204;2022-09-25T02:52:32;4.63;;;3.40;;
10007;SDS011;5043;41.766;26.204;2022-09-25T02:55:06;6.65;;;2.80;;
10007;SDS011;5043;41.766;26.204;2022-09-25T02:57:53;3.05;;;2.33;;
10007;SDS011;5043;41.766;26.204;2022-09-25T03:00:25;6.03;;;3.28;;
10007;SDS011;5043;41.766;26.204;2022-09-25T03:02:53;2.72;;;2.53;;
10007;SDS011;5043;41.766;26.204;2022-09-25T03:05:23;3.40;;;2.67;;
10007;SDS011;5043;41.766;26.204;2022-09-25T03:07:50;6.25;;;2.92;;
10007;SDS011;5043;41.766;26.204;2022-09-25T03:10:44;2.83;;;2.63;;
10007;SDS011;5043;41.766;26.204;2022-09-25T03:13:20;4.28;;;3.22;;
10007;SDS011;5043;41.766;26.204;2022-09-25T03:15:51;5.90;;;3.30;;
10007;SDS011;5043;41.766;26.204;2022-09-25T03:18:23;3.53;;;3.15;;
10007;SDS011;5043;41.766;26.204;2022-09-25T03:20:49;3.53;;;3.17;;
10007;SDS011;5043;41.766;26.204;2022-09-25T03:23:16;3.92;;;3.42;;
10007;SDS011;5043;41.766;26.204;2022-09-25T03:25:41;2.92;;;2.72;;
10007;SDS011;5043;41.766;26.204;2022-09-25T03:28:10;6.03;;;3.60;;
10007;SDS011;5043;41.766;26.204;2022-09-25T03:30:36;5.03;;;3.60;;
10007;SDS011;5043;41.766;26.204;2022-09-25T03:33:05;9.80;;;3.05;;
10007;SDS011;5043;41.766;26.204;2022-09-25T03:35:35;3.00;;;2.80;;
10007;SDS011;5043;41.766;26.204;2022-09-25T03:38:01;3.78;;;2.92;;
10007;SDS011;5043;41.766;26.204;2022-09-25T03:40:27;3.90;;;3.25;;
10007;SDS011;5043;41.766;26.204;2022-09-25T03:42:52;4.28;;;3.38;;
10007;SDS011;5043;41.766;26.204;2022-09-25T03:45:18;4.20;;;3.67;;
10007;SDS011;5043;41.766;26.204;2022-09-25T03:47:43;3.08;;;2.88;;
10007;SDS011;5043;41.766;26.204;2022-09-25T03:50:09;3.70;;;3.08;;
10007;SDS011;5043;41.766;26.204;2022-09-25T03:52:34;4.32;;;3.30;;
10007;SDS011;5043;41.766;26.204;2022-09-25T03:55:00;3.72;;;3.42;;
10007;SDS011;5043;41.766;26.204;2022-09-25T03:57:26;3.50;;;3.00;;
10007;SDS011;5043;41.766;26.204;2022-09-25T03:59:51;3.40;;;3.10;;
10007;SDS011;5043;41.766;26.204;2022-09-25T04:02:17;3.55;;;3.05;;
10007;SDS011;5043;41.766;26.204;2022-09-25T04:04:43;6.18;;;3.25;;
10007;SDS011;5043;41.766;26.204;2022-09-25T04:07:10;4.55;;;3.03;;
10007;SDS011;5043;41.766;26.204;2022-09-25T04:09:36;3.38;;;3.17;;
10007;SDS011;5043;41.766;26.204;2022-09-25T04:12:01;3.92;;;3.53;;
10007;SDS011;5043;41.766;26.204;2022-09-25T04:14:29;3.78;;;3.47;;
10007;SDS011;5043;41.766;26.204;2022-09-25T04:16:55;5.05;;;3.35;;
10007;SDS011;5043;41.766;26.204;2022-09-25T04:19:21;4.55;;;3.50;;
10007;SDS011;5043;41.766;26.204;2022-09-25T04:21:46;3.67;;;3.35;;
10007;SDS011;5043;41.766;26.204;2022-09-25T04:24:11;5.88;;;3.65;;
10007;SDS011;5043;41.766;26.204;2022-09-25T04:27:06;4.80;;;3.80;;
10007;SDS011;5043;41.766;26.204;2022-09-25T04:29:31;4.68;;;3.83;;
10007;SDS011;5043;41.766;26.204;2022-09-25T04:31:57;5.22;;;3.72;;
10007;SDS011;5043;41.766;26.204;2022-09-25T04:34:41;5.07;;;3.90;;
10007;SDS011;5043;41.766;26.204;2022-09-25T04:37:07;6.20;;;4.32;;
10007;SDS011;5043;41.766;26.204;2022-09-25T04:39:32;9.38;;;4.40;;
10007;SDS011;5043;41.766;26.204;2022-09-25T04:41:58;11.18;;;4.72;;
10007;SDS011;5043;41.766;26.204;2022-09-25T04:44:23;7.07;;;5.00;;
10007;SDS011;5043;41.766;26.204;2022-09-25T04:46:48;10.35;;;5.00;;
10007;SDS011;5043;41.766;26.204;2022-09-25T04:49:14;7.18;;;5.05;;
10007;SDS011;5043;41.766;26.204;2022-09-25T04:51:40;9.43;;;5.53;;
10007;SDS011;5043;41.766;26.204;2022-09-25T04:54:05;7.30;;;5.47;;
10007;SDS011;5043;41.766;26.204;2022-09-25T04:56:31;7.95;;;5.55;;
10007;SDS011;5043;41.766;26.204;2022-09-25T04:58:56;8.18;;;5.15;;
10007;SDS011;5043;41.766;26.204;2022-09-25T05:01:21;12.80;;;5.35;;
10007;SDS011;5043;41.766;26.204;2022-09-25T05:03:50;7.72;;;6.28;;
10007;SDS011;5043;41.766;26.204;2022-09-25T05:06:17;8.13;;;5.47;;
10007;SDS011;5043;41.766;26.204;2022-09-25T05:08:46;6.53;;;5.45;;
10007;SDS011;5043;41.766;26.204;2022-09-25T05:11:13;5.72;;;4.60;;
10007;SDS011;5043;41.766;26.204;2022-09-25T05:13:39;5.82;;;5.22;;
10007;SDS011;5043;41.766;26.204;2022-09-25T05:16:06;6.88;;;5.38;;
10007;SDS011;5043;41.766;26.204;2022-09-25T05:18:31;5.90;;;5.30;;
10007;SDS011;5043;41.766;26.204;2022-09-25T05:20:57;8.60;;;5.22;;
10007;SDS011;5043;41.766;26.204;2022-09-25T05:23:28;6.40;;;5.43;;
10007;SDS011;5043;41.766;26.204;2022-09-25T05:25:53;8.18;;;5.82;;
10007;SDS011;5043;41.766;26.204;2022-09-25T05:28:22;13.52;;;5.43;;
10007;SDS011;5043;41.766;26.204;2022-09-25T05:30:49;7.05;;;5.63;;
10007;SDS011;5043;41.766;26.204;2022-09-25T05:33:14;7.18;;;5.85;;
10007;SDS011;5043;41.766;26.204;2022-09-25T05:35:40;10.27;;;5.70;;
10007;SDS011;5043;41.766;26.204;2022-09-25T05:38:05;9.27;;;6.53;;
10007;SDS011;5043;41.766;26.204;2022-09-25T05:40:32;6.05;;;5.22;;
10007;SDS011;5043;41.766;26.204;2022-09-25T05:42:58;11.95;;;6.40;;
10007;SDS011;5043;41.766;26.204;2022-09-25T05:45:24;7.93;;;6.43;;
10007;SDS011;5043;41.766;26.204;2022-09-25T05:48:03;11.18;;;7.07;;
10007;SDS011;5043;41.766;26.204;2022-09-25T05:50:30;10.10;;;7.00;;
10007;SDS011;5043;41.766;26.204;2022-09-25T05:52:57;10.10;;;7.25;;
10007;SDS011;5043;41.766;26.204;2022-09-25T05:55:24;11.02;;;7.10;;
10007;SDS011;5043;41.766;26.204;2022-09-25T05:57:50;8.63;;;7.68;;
10007;SDS011;5043;41.766;26.204;2022-09-25T06:00:15;9.68;;;7.28;;
10007;SDS011;5043;41.766;26.204;2022-09-25T06:02:41;15.75;;;7.85;;
10007;SDS011;5043;41.766;26.204;2022-09-25T06:05:07;11.90;;;7.38;;
10007;SDS011;5043;41.766;26.204;2022-09-25T06:07:34;11.68;;;8.40;;
10007;SDS011;5043;41.766;26.204;2022-09-25T06:09:59;11.63;;;6.20;;
10007;SDS011;5043;41.766;26.204;2022-09-25T06:12:27;8.77;;;6.78;;
10007;SDS011;5043;41.766;26.204;2022-09-25T06:14:53;9.68;;;6.60;;
10007;SDS011;5043;41.766;26.204;2022-09-25T06:17:18;7.22;;;6.53;;
10007;SDS011;5043;41.766;26.204;2022-09-25T06:19:44;9.30;;;6.47;;
10007;SDS011;5043;41.766;26.204;2022-09-25T06:22:10;10.45;;;6.75;;
10007;SDS011;5043;41.766;26.204;2022-09-25T06:24:36;9.20;;;6.70;;
10007;SDS011;5043;41.766;26.204;2022-09-25T06:27:01;10.98;;;7.65;;
10007;SDS011;5043;41.766;26.204;2022-09-25T06:29:27;11.45;;;7.68;;
10007;SDS011;5043;41.766;26.204;2022-09-25T06:31:52;10.52;;;7.32;;
10007;SDS011;5043;41.766;26.204;2022-09-25T06:34:17;12.65;;;7.60;;
10007;SDS011;5043;41.766;26.204;2022-09-25T06:36:43;13.68;;;7.30;;
10007;SDS011;5043;41.766;26.204;2022-09-25T06:39:09;8.40;;;7.45;;
10007;SDS011;5043;41.766;26.204;2022-09-25T06:41:34;8.95;;;6.85;;
10007;SDS011;5043;41.766;26.204;2022-09-25T06:44:00;11.88;;;7.50;;
10007;SDS011;5043;41.766;26.204;2022-09-25T06:46:26;9.15;;;7.20;;
10007;SDS011;5043;41.766;26.204;2022-09-25T06:48:52;9.73;;;8.10;;
10007;SDS011;5043;41.766;26.204;2022-09-25T06:51:20;11.00;;;7.35;;
10007;SDS011;5043;41.766;26.204;2022-09-25T06:53:46;8.35;;;7.40;;
10007;SDS011;5043;41.766;26.204;2022-09-25T06:56:13;12.57;;;7.43;;
10007;SDS011;5043;41.766;26.204;2022-09-25T06:58:40;9.02;;;6.88;;
10007;SDS011;5043;41.766;26.204;2022-09-25T07:01:07;13.95;;;7.90;;
10007;SDS011;5043;41.766;26.204;2022-09-25T07:03:34;8.75;;;6.80;;
10007;SDS011;5043;41.766;26.204;2022-09-25T07:06:14;8.82;;;6.60;;
10007;SDS011;5043;41.766;26.204;2022-09-25T07:08:40;12.07;;;6.75;;
10007;SDS011;5043;41.766;26.204;2022-09-25T07:11:11;11.07;;;7.28;;
10007;SDS011;5043;41.766;26.204;2022-09-25T07:13:40;9.95;;;6.93;;
10007;SDS011;5043;41.766;26.204;2022-09-25T07:16:12;12.95;;;7.32;;
10007;SDS011;5043;41.766;26.204;2022-09-25T07:18:39;7.82;;;7.03;;
10007;SDS011;5043;41.766;26.204;2022-09-25T07:21:18;11.40;;;7.00;;
10007;SDS011;5043;41.766;26.204;2022-09-25T07:23:46;13.15;;;6.78;;
10007;SDS011;5043;41.766;26.204;2022-09-25T07:26:15;8.98;;;6.38;;
10007;SDS011;5043;41.766;26.204;2022-09-25T07:28:46;7.78;;;6.57;;
10007;SDS011;5043;41.766;26.204;2022-09-25T07:31:17;9.63;;;7.20;;
10007;SDS011;5043;41.766;26.204;2022-09-25T07:33:44;8.85;;;6.45;;
10007;SDS011;5043;41.766;26.204;2022-09-25T07:36:11;12.02;;;7.63;;
10007;SDS011;5043;41.766;26.204;2022-09-25T07:38:37;9.60;;;7.65;;
10007;SDS011;5043;41.766;26.204;2022-09-25T07:41:04;9.60;;;7.25;;
10007;SDS011;5043;41.766;26.204;2022-09-25T07:43:31;7.88;;;7.10;;
10007;SDS011;5043;41.766;26.204;2022-09-25T07:45:58;7.47;;;6.60;;
10007;SDS011;5043;41.766;26.204;2022-09-25T07:48:24;9.98;;;6.30;;
10007;SDS011;5043;41.766;26.204;2022-09-25T07:50:50;7.70;;;7.00;;
10007;SDS011;5043;41.766;26.204;2022-09-25T07:53:16;7.30;;;6.60;;
10007;SDS011;5043;41.766;26.204;2022-09-25T07:55:43;13.82;;;6.50;;
10007;SDS011;5043;41.766;26.204;2022-09-25T07:58:10;6.45;;;5.85;;
10007;SDS011;5043;41.766;26.204;2022-09-25T08:00:36;7.50;;;6.70;;
10007;SDS011;5043;41.766;26.204;2022-09-25T08:03:02;8.75;;;6.85;;
10007;SDS011;5043;41.766;26.204;2022-09-25T08:05:27;9.10;;;7.15;;
10007;SDS011;5043;41.766;26.204;2022-09-25T08:07:53;8.80;;;6.68;;
10007;SDS011;5043;41.766;26.204;2022-09-25T08:10:19;9.98;;;7.47;;
10007;SDS011;5043;41.766;26.204;2022-09-25T08:12:45;8.75;;;6.68;;
10007;SDS011;5043;41.766;26.204;2022-09-25T08:15:11;22.50;;;5.68;;
10007;SDS011;5043;41.766;26.204;2022-09-25T08:17:38;7.45;;;5.65;;
10007;SDS011;5043;41.766;26.204;2022-09-25T08:20:05;8.20;;;6.30;;
10007;SDS011;5043;41.766;26.204;2022-09-25T08:22:31;6.78;;;4.93;;
10007;SDS011;5043;41.766;26.204;2022-09-25T08:24:57;12.45;;;5.25;;
10007;SDS011;5043;41.766;26.204;2022-09-25T08:27:24;6.70;;;4.80;;
10007;SDS011;5043;41.766;26.204;2022-09-25T08:29:50;7.40;;;4.35;;
10007;SDS011;5043;41.766;26.204;2022-09-25T08:32:15;5.32;;;3.95;;
10007;SDS011;5043;41.766;26.204;2022-09-25T08:34:40;4.18;;;3.75;;
10007;SDS011;5043;41.766;26.204;2022-09-25T08:37:06;10.55;;;3.60;;
10007;SDS011;5043;41.766;26.204;2022-09-25T08:39:34;4.90;;;3.90;;
10007;SDS011;5043;41.766;26.204;2022-09-25T08:42:00;6.13;;;4.10;;
10007;SDS011;5043;41.766;26.204;2022-09-25T08:50:18;4.32;;;3.50;;
10007;SDS011;5043;41.766;26.204;2022-09-25T08:52:53;4.10;;;3.30;;
10007;SDS011;5043;41.766;26.204;2022-09-25T08:55:38;3.75;;;3.38;;
10007;SDS011;5043;41.766;26.204;2022-09-25T08:58:26;5.25;;;3.22;;
10007;SDS011;5043;41.766;26.204;2022-09-25T09:00:59;3.40;;;2.80;;
10007;SDS011;5043;41.766;26.204;2022-09-25T09:03:32;3.58;;;3.25;;
10007;SDS011;5043;41.766;26.204;2022-09-25T09:06:11;3.15;;;2.85;;
10007;SDS011;5043;41.766;26.204;2022-09-25T09:08:40;3.20;;;2.90;;
10007;SDS011;5043;41.766;26.204;2022-09-25T09:11:17;3.00;;;2.80;;
10007;SDS011;5043;41.766;26.204;2022-09-25T09:13:50;3.20;;;2.90;;
10007;SDS011;5043;41.766;26.204;2022-09-25T09:16:40;5.38;;;3.20;;
10007;SDS011;5043;41.766;26.204;2022-09-25T09:19:08;3.67;;;2.75;;
10007;SDS011;5043;41.766;26.204;2022-09-25T09:35:35;3.40;;;3.00;;
10007;SDS011;5043;41.766;26.204;2022-09-25T09:49:54;3.97;;;3.25;;
10007;SDS011;5043;41.766;26.204;2022-09-25T09:52:35;4.70;;;3.28;;
10007;SDS011;5043;41.766;26.204;2022-09-25T09:55:11;3.72;;;3.10;;
10007;SDS011;5043;41.766;26.204;2022-09-25T09:57:52;6.10;;;3.58;;
10007;SDS011;5043;41.766;26.204;2022-09-25T10:00:21;3.08;;;2.70;;
10007;SDS011;5043;41.766;26.204;2022-09-25T10:02:58;5.70;;;2.80;;
10007;SDS011;5043;41.766;26.204;2022-09-25T10:05:46;2.83;;;2.50;;
10007;SDS011;5043;41.766;26.204;2022-09-25T10:08:12;3.67;;;2.85;;
10007;SDS011;5043;41.766;26.204;2022-09-25T10:13:28;5.38;;;2.65;;
10007;SDS011;5043;41.766;26.204;2022-09-25T10:16:01;7.50;;;2.50;;
10007;SDS011;5043;41.766;26.204;2022-09-25T10:18:44;1.90;;;1.80;;
10007;SDS011;5043;41.766;26.204;2022-09-25T10:21:17;2.20;;;1.95;;
10007;SDS011;5043;41.766;26.204;2022-09-25T10:29:00;1.92;;;1.83;;
10007;SDS011;5043;41.766;26.204;2022-09-25T10:31:29;2.42;;;1.90;;
10007;SDS011;5043;41.766;26.204;2022-09-25T10:36:47;3.35;;;1.95;;
10007;SDS011;5043;41.766;26.204;2022-09-25T10:41:59;4.38;;;2.10;;
10007;SDS011;5043;41.766;26.204;2022-09-25T10:44:30;2.05;;;1.88;;
10007;SDS011;5043;41.766;26.204;2022-09-25T10:50:06;1.75;;;1.60;;
10007;SDS011;5043;41.766;26.204;2022-09-25T10:52:46;1.95;;;1.83;;
10007;SDS011;5043;41.766;26.204;2022-09-25T10:58:23;2.42;;;2.22;;
10007;SDS011;5043;41.766;26.204;2022-09-25T11:00:57;3.92;;;2.22;;
10007;SDS011;5043;41.766;26.204;2022-09-25T11:03:32;2.00;;;1.80;;
10007;SDS011;5043;41.766;26.204;2022-09-25T11:06:04;2.13;;;1.70;;
10007;SDS011;5043;41.766;26.204;2022-09-25T11:08:35;2.03;;;1.85;;
10007;SDS011;5043;41.766;26.204;2022-09-25T11:11:03;2.10;;;1.58;;
10007;SDS011;5043;41.766;26.204;2022-09-25T11:13:44;2.42;;;1.60;;
10007;SDS011;5043;41.766;26.204;2022-09-25T11:16:11;2.00;;;1.80;;
10007;SDS011;5043;41.766;26.204;2022-09-25T11:18:40;1.85;;;1.75;;
10007;SDS011;5043;41.766;26.204;2022-09-25T11:24:24;2.70;;;1.70;;
10007;SDS011;5043;41.766;26.204;2022-09-25T11:41:15;3.70;;;2.33;;
10007;SDS011;5043;41.766;26.204;2022-09-25T11:43:54;1.90;;;1.80;;
10007;SDS011;5043;41.766;26.204;2022-09-25T11:49:26;4.03;;;1.85;;
10007;SDS011;5043;41.766;26.204;2022-09-25T12:08:20;1.98;;;1.70;;
10007;SDS011;5043;41.766;26.204;2022-09-25T12:11:09;1.70;;;1.60;;
10007;SDS011;5043;41.766;26.204;2022-09-25T12:24:12;2.00;;;1.90;;
10007;SDS011;5043;41.766;26.204;2022-09-25T12:26:53;3.33;;;1.75;;
10007;SDS011;5043;41.766;26.204;2022-09-25T12:29:31;2.03;;;1.92;;
10007;SDS011;5043;41.766;26.204;2022-09-25T12:37:41;2.78;;;2.25;;
10007;SDS011;5043;41.766;26.204;2022-09-25T12:40:33;3.72;;;2.53;;
10007;SDS011;5043;41.766;26.204;2022-09-25T12:45:57;2.33;;;2.13;;
10007;SDS011;5043;41.766;26.204;2022-09-25T12:51:48;3.70;;;1.60;;
10007;SDS011;5043;41.766;26.204;2022-09-25T12:59:27;2.65;;;1.63;;
10007;SDS011;5043;41.766;26.204;2022-09-25T13:04:42;2.78;;;1.50;;
10007;SDS011;5043;41.766;26.204;2022-09-25T13:13:03;2.63;;;1.90;;
10007;SDS011;5043;41.766;26.204;2022-09-25T13:15:34;3.58;;;1.50;;
10007;SDS011;5043;41.766;26.204;2022-09-25T13:18:03;1.95;;;1.85;;
10007;SDS011;5043;41.766;26.204;2022-09-25T13:22:57;2.05;;;1.85;;
10007;SDS011;5043;41.766;26.204;2022-09-25T13:25:26;4.07;;;1.90;;
10007;SDS011;5043;41.766;26.204;2022-09-25T13:27:53;2.53;;;2.03;;
10007;SDS011;5043;41.766;26.204;2022-09-25T13:30:29;4.70;;;2.17;;
10007;SDS011;5043;41.766;26.204;2022-09-25T13:32:55;2.00;;;1.90;;
10007;SDS011;5043;41.766;26.204;2022-09-25T13:35:25;1.77;;;1.67;;
10007;SDS011;5043;41.766;26.204;2022-09-25T13:37:55;1.90;;;1.80;;
10007;SDS011;5043;41.766;26.204;2022-09-25T13:40:37;2.47;;;2.10;;
10007;SDS011;5043;41.766;26.204;2022-09-25T13:45:46;1.80;;;1.70;;
10007;SDS011;5043;41.766;26.204;2022-09-25T13:51:40;3.25;;;1.75;;
10007;SDS011;5043;41.766;26.204;2022-09-25T13:56:49;1.90;;;1.80;;
10007;SDS011;5043;41.766;26.204;2022-09-25T14:01:50;2.80;;;1.73;;
10007;SDS011;5043;41.766;26.204;2022-09-25T14:04:27;2.10;;;2.00;;
10007;SDS011;5043;41.766;26.204;2022-09-25T14:07:02;4.88;;;1.85;;
10007;SDS011;5043;41.766;26.204;2022-09-25T14:09:30;2.45;;;2.08;;
10007;SDS011;5043;41.766;26.204;2022-09-25T14:17:16;5.55;;;2.00;;
10007;SDS011;5043;41.766;26.204;2022-09-25T14:19:45;2.10;;;1.90;;
10007;SDS011;5043;41.766;26.204;2022-09-25T14:22:47;2.28;;;2.08;;
10007;SDS011;5043;41.766;26.204;2022-09-25T14:25:23;2.05;;;1.90;;
10007;SDS011;5043;41.766;26.204;2022-09-25T14:27:51;4.40;;;2.10;;
10007;SDS011;5043;41.766;26.204;2022-09-25T14:30:18;2.92;;;2.20;;
10007;SDS011;5043;41.766;26.204;2022-09-25T14:33:00;2.10;;;1.90;;
10007;SDS011;5043;41.766;26.204;2022-09-25T14:36:05;6.22;;;1.95;;
10007;SDS011;5043;41.766;26.204;2022-09-25T14:46:47;2.20;;;2.00;;
10007;SDS011;5043;41.766;26.204;2022-09-25T14:52:03;5.32;;;2.67;;
10007;SDS011;5043;41.766;26.204;2022-09-25T14:54:33;5.10;;;2.50;;
10007;SDS011;5043;41.766;26.204;2022-09-25T14:57:02;2.92;;;2.03;;
10007;SDS011;5043;41.766;26.204;2022-09-25T15:02:03;2.97;;;2.10;;
10007;SDS011;5043;41.766;26.204;2022-09-25T15:04:33;2.67;;;2.47;;
10007;SDS011;5043;41.766;26.204;2022-09-25T15:12:06;2.17;;;2.00;;
10007;SDS011;5043;41.766;26.204;2022-09-25T15:14:55;2.42;;;2.22;;
10007;SDS011;5043;41.766;26.204;2022-09-25T15:17:29;7.90;;;2.83;;
10007;SDS011;5043;41.766;26.204;2022-09-25T15:19:58;4.13;;;2.70;;
10007;SDS011;5043;41.766;26.204;2022-09-25T15:22:31;4.65;;;2.60;;
10007;SDS011;5043;41.766;26.204;2022-09-25T15:25:00;7.40;;;2.75;;
10007;SDS011;5043;41.766;26.204;2022-09-25T15:27:28;6.30;;;3.28;;
10007;SDS011;5043;41.766;26.204;2022-09-25T15:29:54;3.65;;;3.00;;
10007;SDS011;5043;41.766;26.204;2022-09-25T15:32:22;4.70;;;3.75;;
10007;SDS011;5043;41.766;26.204;2022-09-25T15:37:45;3.58;;;3.22;;
10007;SDS011;5043;41.766;26.204;2022-09-25T15:42:49;5.13;;;3.17;;
10007;SDS011;5043;41.766;26.204;2022-09-25T15:48:07;6.53;;;3.75;;
10007;SDS011;5043;41.766;26.204;2022-09-25T15:50:37;5.68;;;3.60;;
10007;SDS011;5043;41.766;26.204;2022-09-25T15:53:13;4.70;;;3.85;;
10007;SDS011;5043;41.766;26.204;2022-09-25T15:55:44;6.07;;;4.15;;
10007;SDS011;5043;41.766;26.204;2022-09-25T15:58:11;6.30;;;3.97;;
10007;SDS011;5043;41.766;26.204;2022-09-25T16:00:43;10.25;;;3.88;;
10007;SDS011;5043;41.766;26.204;2022-09-25T16:03:38;6.18;;;4.05;;
10007;SDS011;5043;41.766;26.204;2022-09-25T16:06:35;5.10;;;3.75;;
10007;SDS011;5043;41.766;26.204;2022-09-25T16:09:08;7.93;;;4.15;;
10007;SDS011;5043;41.766;26.204;2022-09-25T16:11:43;4.68;;;3.90;;
10007;SDS011;5043;41.766;26.204;2022-09-25T16:16:56;8.30;;;4.20;;
10007;SDS011;5043;41.766;26.204;2022-09-25T16:21:49;5.07;;;4.05;;
10007;SDS011;5043;41.766;26.204;2022-09-25T16:24:19;5.22;;;3.50;;
10007;SDS011;5043;41.766;26.204;2022-09-25T16:26:51;7.50;;;4.22;;
10007;SDS011;5043;41.766;26.204;2022-09-25T16:29:23;5.95;;;4.13;;
10007;SDS011;5043;41.766;26.204;2022-09-25T16:31:51;9.10;;;4.43;;
10007;SDS011;5043;41.766;26.204;2022-09-25T16:34:22;6.60;;;4.38;;
10007;SDS011;5043;41.766;26.204;2022-09-25T16:36:51;5.15;;;3.80;;
10007;SDS011;5043;41.766;26.204;2022-09-25T16:39:24;4.78;;;4.28;;
10007;SDS011;5043;41.766;26.204;2022-09-25T16:41:55;7.75;;;3.45;;
10007;SDS011;5043;41.766;26.204;2022-09-25T16:49:25;4.55;;;3.25;;
10007;SDS011;5043;41.766;26.204;2022-09-25T16:51:51;7.03;;;3.83;;
10007;SDS011;5043;41.766;26.204;2022-09-25T16:54:18;6.32;;;3.53;;
10007;SDS011;5043;41.766;26.204;2022-09-25T16:56:46;4.60;;;3.50;;
10007;SDS011;5043;41.766;26.204;2022-09-25T16:59:22;6.20;;;3.13;;
10007;SDS011;5043;41.766;26.204;2022-09-25T17:01:51;5.15;;;3.20;;
10007;SDS011;5043;41.766;26.204;2022-09-25T17:04:21;4.90;;;3.45;;
10007;SDS011;5043;41.766;26.204;2022-09-25T17:06:50;4.38;;;3.45;;
10007;SDS011;5043;41.766;26.204;2022-09-25T17:09:16;4.00;;;3.30;;
10007;SDS011;5043;41.766;26.204;2022-09-25T17:11:43;4.35;;;3.40;;
10007;SDS011;5043;41.766;26.204;2022-09-25T17:14:30;5.13;;;2.65;;
10007;SDS011;5043;41.766;26.204;2022-09-25T17:16:55;7.88;;;2.55;;
10007;SDS011;5043;41.766;26.204;2022-09-25T17:19:22;4.53;;;3.47;;
10007;SDS011;5043;41.766;26.204;2022-09-25T17:21:48;3.67;;;2.45;;
10007;SDS011;5043;41.766;26.204;2022-09-25T17:24:19;4.13;;;2.83;;
10007;SDS011;5043;41.766;26.204;2022-09-25T17:26:47;5.40;;;3.22;;
10007;SDS011;5043;41.766;26.204;2022-09-25T17:29:15;4.47;;;3.70;;
10007;SDS011;5043;41.766;26.204;2022-09-25T17:31:41;5.28;;;3.83;;
10007;SDS011;5043;41.766;26.204;2022-09-25T17:34:20;4.60;;;3.42;;
10007;SDS011;5043;41.766;26.204;2022-09-25T17:36:52;3.67;;;3.28;;
10007;SDS011;5043;41.766;26.204;2022-09-25T17:39:18;5.82;;;3.13;;
10007;SDS011;5043;41.766;26.204;2022-09-25T17:41:44;3.70;;;3.17;;
10007;SDS011;5043;41.766;26.204;2022-09-25T17:44:11;3.15;;;2.85;;
10007;SDS011;5043;41.766;26.204;2022-09-25T17:46:40;3.92;;;3.10;;
10007;SDS011;5043;41.766;26.204;2022-09-25T17:49:06;4.38;;;2.65;;
10007;SDS011;5043;41.766;26.204;2022-09-25T17:51:32;2.50;;;2.30;;
10007;SDS011;5043;41.766;26.204;2022-09-25T17:53:58;3.47;;;2.60;;
10007;SDS011;5043;41.766;26.204;2022-09-25T17:56:26;3.72;;;2.60;;
10007;SDS011;5043;41.766;26.204;2022-09-25T17:58:53;3.45;;;2.30;;
10007;SDS011;5043;41.766;26.204;2022-09-25T18:01:21;2.65;;;2.42;;
10007;SDS011;5043;41.766;26.204;2022-09-25T18:04:31;4.10;;;2.40;;
10007;SDS011;5043;41.766;26.204;2022-09-25T18:06:40;2.83;;;2.00;;
10007;SDS011;5043;41.766;26.204;2022-09-25T18:09:07;2.70;;;2.25;;
10007;SDS011;5043;41.766;26.204;2022-09-25T18:11:34;3.38;;;2.15;;
10007;SDS011;5043;41.766;26.204;2022-09-25T18:13:59;10.07;;;2.40;;
10007;SDS011;5043;41.766;26.204;2022-09-25T18:16:35;2.10;;;1.90;;
10007;SDS011;5043;41.766;26.204;2022-09-25T18:19:00;2.50;;;2.05;;
10007;SDS011;5043;41.766;26.204;2022-09-25T18:21:44;2.78;;;2.00;;
10007;SDS011;5043;41.766;26.204;2022-09-25T18:24:28;2.30;;;2.10;;
10007;SDS011;5043;41.766;26.204;2022-09-25T18:26:54;3.28;;;2.17;;
10007;SDS011;5043;41.766;26.204;2022-09-25T18:29:22;3.30;;;2.17;;
10007;SDS011;5043;41.766;26.204;2022-09-25T18:31:47;4.50;;;2.30;;